Time,TemperatureF,DewpointF,PressureIn,WindDirection,WindDirectionDegrees,WindSpeedMPH,WindSpeedGustMPH,Humidity,HourlyPrecipIn,Conditions,Clouds,dailyrainin,SoftwareType,DateUTC
2013-08-31 00:00:00,72.3,69.5,29.91,NNW,339,5.0,18.0,91,0.00,,---,0.00,VWS V14.01,2013-08-31 04:00:00,
2013-08-31 00:01:00,72.3,69.5,29.91,South,176,11.0,18.0,91,0.00,,---,0.00,VWS V14.01,2013-08-31 04:01:00,
2013-08-31 00:02:00,72.3,69.5,29.92,WNW,298,7.0,14.0,91,0.00,,---,0.00,VWS V14.01,2013-08-31 04:02:00,
2013-08-31 00:06:00,72.3,69.2,29.92,SW,214,12.0,19.0,90,0.00,,---,0.00,VWS V14.01,2013-08-31 04:06:00,
2013-08-31 00:11:00,72.3,69.2,29.91,SE,136,9.0,19.0,90,0.00,,---,0.00,VWS V14.01,2013-08-31 04:11:00,
2013-08-31 00:16:00,72.4,69.3,29.91,WSW,241,10.0,19.0,90,0.00,,---,0.00,VWS V14.01,2013-08-31 04:16:00,
2013-08-31 00:21:00,72.4,69.3,29.91,SSE,167,15.0,19.0,90,0.00,,---,0.00,VWS V14.01,2013-08-31 04:21:00,
2013-08-31 00:26:00,72.5,69.7,29.91,South,188,12.0,19.0,91,0.00,,---,0.00,VWS V14.01,2013-08-31 04:26:00,
2013-08-31 00:30:00,72.4,69.6,29.91,South,174,5.0,19.0,91,0.00,,---,0.00,VWS V14.01,2013-08-31 04:30:00,
2013-08-31 00:31:00,72.4,69.6,29.91,SW,214,11.0,19.0,91,0.00,,---,0.00,VWS V14.01,2013-08-31 04:31:00,
2013-08-31 00:36:00,72.3,69.5,29.91,SSW,195,4.0,15.0,91,0.00,,---,0.00,VWS V14.01,2013-08-31 04:36:00,
2013-08-31 00:41:00,72.3,69.5,29.91,ENE,68,4.0,19.0,91,0.00,,---,0.00,VWS V14.01,2013-08-31 04:41:00,
2013-08-31 00:46:00,72.3,69.8,29.91,SW,221,9.0,19.0,92,0.00,,---,0.00,VWS V14.01,2013-08-31 04:46:00,
2013-08-31 00:51:00,72.2,69.8,29.91,South,171,6.0,19.0,92,0.00,,---,0.00,VWS V14.01,2013-08-31 04:51:00,
2013-08-31 00:56:00,72.1,69.3,29.91,NW,326,8.0,19.0,91,0.00,,---,0.00,VWS V14.01,2013-08-31 04:56:00,
2013-08-31 01:00:00,72.3,69.5,29.91,SSW,199,10.0,20.0,91,0.00,,---,0.00,VWS V14.01,2013-08-31 05:00:00,
2013-08-31 01:01:00,72.2,69.4,29.91,NE,46,7.0,20.0,91,0.00,,---,0.00,VWS V14.01,2013-08-31 05:01:00,
2013-08-31 01:06:00,72.3,69.5,29.91,SSW,208,8.0,18.0,91,0.00,,---,0.00,VWS V14.01,2013-08-31 05:06:00,
2013-08-31 01:11:00,72.2,69.4,29.90,SSW,195,9.0,18.0,91,0.00,,---,0.00,VWS V14.01,2013-08-31 05:11:00,
2013-08-31 01:16:00,72.2,69.4,29.90,South,185,9.0,18.0,91,0.00,,---,0.00,VWS V14.01,2013-08-31 05:16:00,
2013-08-31 01:21:00,72.2,69.8,29.90,East,101,4.0,18.0,92,0.00,,---,0.00,VWS V14.01,2013-08-31 05:21:00,
2013-08-31 01:26:00,72.2,69.8,29.90,ENE,78,13.0,18.0,92,0.00,,---,0.00,VWS V14.01,2013-08-31 05:26:00,
2013-08-31 01:30:00,72.1,70.0,29.89,NE,54,9.0,18.0,93,0.00,,---,0.00,VWS V14.01,2013-08-31 05:30:00,
2013-08-31 01:31:00,72.1,70.0,29.89,NE,54,9.0,18.0,93,0.00,,---,0.00,VWS V14.01,2013-08-31 05:31:00,
2013-08-31 01:36:00,72.1,70.0,29.90,South,190,9.0,20.0,93,0.00,,---,0.00,VWS V14.01,2013-08-31 05:36:00,
2013-08-31 01:41:00,72.0,69.9,29.90,SW,227,6.0,20.0,93,0.00,,---,0.00,VWS V14.01,2013-08-31 05:41:00,
2013-08-31 01:46:00,72.0,69.9,29.90,SW,214,8.0,20.0,93,0.00,,---,0.00,VWS V14.01,2013-08-31 05:46:00,
2013-08-31 01:51:00,71.9,69.8,29.89,SSE,153,4.0,21.0,93,0.00,,---,0.00,VWS V14.01,2013-08-31 05:51:00,
2013-08-31 01:56:00,71.8,69.3,29.90,SW,233,7.0,21.0,92,0.00,,---,0.00,VWS V14.01,2013-08-31 05:56:00,
2013-08-31 02:00:00,71.8,69.0,29.89,South,176,6.0,21.0,91,0.00,,---,0.00,VWS V14.01,2013-08-31 06:00:00,
2013-08-31 02:01:00,71.8,69.0,29.89,South,188,6.0,21.0,91,0.00,,---,0.00,VWS V14.01,2013-08-31 06:01:00,
2013-08-31 02:06:00,71.9,69.4,29.89,ENE,66,6.0,15.0,92,0.00,,---,0.00,VWS V14.01,2013-08-31 06:06:00,
2013-08-31 02:11:00,72.0,69.6,29.89,South,190,6.0,18.0,92,0.00,,---,0.00,VWS V14.01,2013-08-31 06:11:00,
2013-08-31 02:16:00,71.9,69.4,29.89,SE,143,7.0,18.0,92,0.00,,---,0.00,VWS V14.01,2013-08-31 06:16:00,
2013-08-31 02:21:00,71.8,69.3,29.89,SSE,148,13.0,18.0,92,0.00,,---,0.00,VWS V14.01,2013-08-31 06:21:00,
2013-08-31 02:26:00,71.8,69.7,29.89,SSW,205,6.0,18.0,93,0.00,,---,0.00,VWS V14.01,2013-08-31 06:26:00,
2013-08-31 02:30:00,71.6,69.2,29.89,WSW,237,3.0,18.0,92,0.00,,---,0.00,VWS V14.01,2013-08-31 06:30:00,
2013-08-31 02:31:00,71.6,69.2,29.89,WSW,237,3.0,18.0,92,0.00,,---,0.00,VWS V14.01,2013-08-31 06:31:00,
2013-08-31 02:36:00,71.7,69.3,29.89,SW,219,5.0,15.0,92,0.00,,---,0.00,VWS V14.01,2013-08-31 06:36:00,
2013-08-31 02:41:00,71.8,69.3,29.88,SSE,163,4.0,16.0,92,0.00,,---,0.00,VWS V14.01,2013-08-31 06:41:00,
2013-08-31 02:46:00,71.8,69.0,29.88,SSE,167,4.0,17.0,91,0.00,,---,0.00,VWS V14.01,2013-08-31 06:46:00,
2013-08-31 02:51:00,71.8,69.0,29.88,South,191,9.0,17.0,91,0.00,,---,0.00,VWS V14.01,2013-08-31 06:51:00,
2013-08-31 02:56:00,71.8,69.0,29.88,SSW,194,11.0,21.0,91,0.00,,---,0.00,VWS V14.01,2013-08-31 06:56:00,
2013-08-31 03:00:00,71.7,68.9,29.88,WSW,245,10.0,21.0,91,0.00,,---,0.00,VWS V14.01,2013-08-31 07:00:00,
2013-08-31 03:01:00,71.7,68.9,29.88,SSW,194,12.0,21.0,91,0.00,,---,0.00,VWS V14.01,2013-08-31 07:01:00,
2013-08-31 03:06:00,71.8,69.0,29.88,SSW,195,6.0,16.0,91,0.00,,---,0.00,VWS V14.01,2013-08-31 07:06:00,
2013-08-31 03:11:00,71.8,69.0,29.88,ESE,105,8.0,16.0,91,0.00,,---,0.00,VWS V14.01,2013-08-31 07:11:00,
2013-08-31 03:16:00,71.8,69.0,29.88,SW,230,8.0,16.0,91,0.00,,---,0.00,VWS V14.01,2013-08-31 07:16:00,
2013-08-31 03:21:00,71.7,68.9,29.88,South,169,5.0,16.0,91,0.00,,---,0.00,VWS V14.01,2013-08-31 07:21:00,
2013-08-31 03:26:00,71.6,68.8,29.88,SW,224,7.0,16.0,91,0.00,,---,0.00,VWS V14.01,2013-08-31 07:26:00,
2013-08-31 03:30:00,71.6,68.8,29.88,South,171,5.0,16.0,91,0.00,,---,0.00,VWS V14.01,2013-08-31 07:30:00,
2013-08-31 03:31:00,71.6,68.8,29.88,SE,137,5.0,16.0,91,0.00,,---,0.00,VWS V14.01,2013-08-31 07:31:00,
2013-08-31 03:36:00,71.6,68.5,29.88,West,281,2.0,12.0,90,0.00,,---,0.00,VWS V14.01,2013-08-31 07:36:00,
2013-08-31 03:41:00,71.6,68.8,29.88,SSW,198,8.0,14.0,91,0.00,,---,0.00,VWS V14.01,2013-08-31 07:41:00,
2013-08-31 03:46:00,71.6,68.8,29.88,South,191,12.0,14.0,91,0.00,,---,0.00,VWS V14.01,2013-08-31 07:46:00,
2013-08-31 03:51:00,71.7,69.3,29.88,SE,143,6.0,14.0,92,0.00,,---,0.00,VWS V14.01,2013-08-31 07:51:00,
2013-08-31 03:56:00,71.6,69.2,29.88,WSW,257,11.0,14.0,92,0.00,,---,0.00,VWS V14.01,2013-08-31 07:56:00,
2013-08-31 04:00:00,71.5,68.7,29.88,SSW,193,6.0,14.0,91,0.00,,---,0.00,VWS V14.01,2013-08-31 08:00:00,
2013-08-31 04:01:00,71.5,68.7,29.88,SW,230,7.0,14.0,91,0.00,,---,0.00,VWS V14.01,2013-08-31 08:01:00,
2013-08-31 04:06:00,71.5,68.7,29.88,NE,41,3.0,11.0,91,0.00,,---,0.00,VWS V14.01,2013-08-31 08:06:00,
2013-08-31 04:11:00,71.5,68.7,29.88,West,259,11.0,12.0,91,0.00,,---,0.00,VWS V14.01,2013-08-31 08:11:00,
2013-08-31 04:16:00,71.6,68.5,29.88,West,274,3.0,12.0,90,0.00,,---,0.00,VWS V14.01,2013-08-31 08:16:00,
2013-08-31 04:21:00,71.6,68.5,29.88,SSW,210,7.0,12.0,90,0.00,,---,0.00,VWS V14.01,2013-08-31 08:21:00,
2013-08-31 04:26:00,71.6,68.5,29.88,WSW,243,4.0,12.0,90,0.00,,---,0.00,VWS V14.01,2013-08-31 08:26:00,
2013-08-31 04:30:00,71.5,68.4,29.88,SSW,203,7.0,12.0,90,0.00,,---,0.00,VWS V14.01,2013-08-31 08:30:00,
2013-08-31 04:31:00,71.5,68.4,29.88,SSW,203,7.0,12.0,90,0.00,,---,0.00,VWS V14.01,2013-08-31 08:31:00,
2013-08-31 04:36:00,71.6,68.5,29.88,SSE,149,7.0,12.0,90,0.00,,---,0.00,VWS V14.01,2013-08-31 08:36:00,
2013-08-31 04:41:00,71.6,68.5,29.88,SW,236,8.0,12.0,90,0.00,,---,0.00,VWS V14.01,2013-08-31 08:41:00,
2013-08-31 04:46:00,71.6,68.5,29.88,SSW,211,1.0,12.0,90,0.00,,---,0.00,VWS V14.01,2013-08-31 08:46:00,
2013-08-31 04:51:00,71.6,68.5,29.88,SSW,213,4.0,12.0,90,0.00,,---,0.00,VWS V14.01,2013-08-31 08:51:00,
2013-08-31 04:56:00,71.6,68.8,29.88,South,172,3.0,12.0,91,0.00,,---,0.00,VWS V14.01,2013-08-31 08:56:00,
2013-08-31 05:00:00,71.7,69.3,29.88,SSW,195,8.0,12.0,92,0.00,,---,0.00,VWS V14.01,2013-08-31 09:00:00,
2013-08-31 05:01:00,71.7,69.3,29.88,SSW,195,8.0,12.0,92,0.00,,---,0.00,VWS V14.01,2013-08-31 09:01:00,
2013-08-31 05:06:00,71.6,69.2,29.88,SSW,200,6.0,13.0,92,0.00,,---,0.00,VWS V14.01,2013-08-31 09:06:00,
2013-08-31 05:11:00,71.6,69.5,29.88,ESE,110,7.0,13.0,93,0.00,,---,0.00,VWS V14.01,2013-08-31 09:11:00,
2013-08-31 05:16:00,71.6,69.8,29.88,SE,136,7.0,13.0,94,0.00,,---,0.00,VWS V14.01,2013-08-31 09:16:00,
2013-08-31 05:21:00,71.5,69.7,29.89,SSE,160,7.0,13.0,94,0.00,,---,0.00,VWS V14.01,2013-08-31 09:21:00,
2013-08-31 05:26:00,71.5,69.7,29.89,East,92,6.0,13.0,94,0.00,,---,0.00,VWS V14.01,2013-08-31 09:26:00,
2013-08-31 05:30:00,71.5,69.7,29.89,ENE,59,7.0,13.0,94,0.00,,---,0.00,VWS V14.01,2013-08-31 09:30:00,
2013-08-31 05:31:00,71.5,69.7,29.89,ENE,59,7.0,13.0,94,0.00,,---,0.00,VWS V14.01,2013-08-31 09:31:00,
2013-08-31 05:36:00,71.5,69.7,29.89,SSW,205,6.0,13.0,94,0.00,,---,0.00,VWS V14.01,2013-08-31 09:36:00,
2013-08-31 05:41:00,71.4,69.6,29.89,WSW,237,4.0,13.0,94,0.00,,---,0.00,VWS V14.01,2013-08-31 09:41:00,
2013-08-31 05:46:00,71.5,69.7,29.89,South,172,4.0,14.0,94,0.00,,---,0.00,VWS V14.01,2013-08-31 09:46:00,
2013-08-31 05:51:00,71.5,69.7,29.88,SW,217,9.0,14.0,94,0.00,,---,0.00,VWS V14.01,2013-08-31 09:51:00,
2013-08-31 05:56:00,71.5,69.7,29.89,WSW,243,11.0,14.0,94,0.00,,---,0.00,VWS V14.01,2013-08-31 09:56:00,
2013-08-31 06:00:00,71.5,69.7,29.89,WNW,285,7.0,16.0,94,0.00,,---,0.00,VWS V14.01,2013-08-31 10:00:00,
2013-08-31 06:01:00,71.5,69.7,29.89,WNW,285,7.0,16.0,94,0.00,,---,0.00,VWS V14.01,2013-08-31 10:01:00,
2013-08-31 06:06:00,71.5,69.7,29.89,SSW,200,5.0,15.0,94,0.00,,---,0.00,VWS V14.01,2013-08-31 10:06:00,
2013-08-31 06:11:00,71.5,69.7,29.89,SSW,193,6.0,15.0,94,0.00,,---,0.00,VWS V14.01,2013-08-31 10:11:00,
2013-08-31 06:16:00,71.5,69.7,29.89,SW,226,6.0,15.0,94,0.00,,---,0.00,VWS V14.01,2013-08-31 10:16:00,
2013-08-31 06:21:00,71.5,69.7,29.89,SW,235,9.0,15.0,94,0.00,,---,0.00,VWS V14.01,2013-08-31 10:21:00,
2013-08-31 06:26:00,71.5,69.7,29.89,ESE,122,14.0,15.0,94,0.00,,---,0.00,VWS V14.01,2013-08-31 10:26:00,
2013-08-31 06:30:00,71.5,69.7,29.89,NW,318,5.0,15.0,94,0.00,,---,0.00,VWS V14.01,2013-08-31 10:30:00,
2013-08-31 06:31:00,71.5,69.7,29.89,NW,318,5.0,15.0,94,0.00,,---,0.00,VWS V14.01,2013-08-31 10:31:00,
2013-08-31 06:36:00,71.6,69.8,29.89,SSE,166,11.0,13.0,94,0.00,,---,0.00,VWS V14.01,2013-08-31 10:36:00,
2013-08-31 06:41:00,71.6,69.8,29.89,SSE,167,5.0,14.0,94,0.00,,---,0.00,VWS V14.01,2013-08-31 10:41:00,
2013-08-31 06:46:00,71.6,69.8,29.89,WSW,250,9.0,14.0,94,0.00,,---,0.00,VWS V14.01,2013-08-31 10:46:00,
2013-08-31 06:51:00,71.8,70.0,29.89,NW,321,10.0,14.0,94,0.00,,---,0.00,VWS V14.01,2013-08-31 10:51:00,
2013-08-31 06:56:00,71.9,70.1,29.89,SSE,163,5.0,14.0,94,0.00,,---,0.00,VWS V14.01,2013-08-31 10:56:00,
2013-08-31 07:00:00,72.1,70.3,29.89,SW,232,7.0,14.0,94,0.00,,---,0.00,VWS V14.01,2013-08-31 11:00:00,
2013-08-31 07:01:00,72.1,70.3,29.89,SW,221,4.0,4.0,94,0.00,,---,0.00,VWS V14.01,2013-08-31 11:01:00,
2013-08-31 07:06:00,72.3,70.5,29.89,SSE,148,2.0,13.0,94,0.00,,---,0.00,VWS V14.01,2013-08-31 11:06:00,
2013-08-31 07:11:00,72.5,70.7,29.89,SW,232,9.0,13.0,94,0.00,,---,0.00,VWS V14.01,2013-08-31 11:11:00,
2013-08-31 07:16:00,72.7,70.6,29.89,SW,232,9.0,13.0,93,0.00,,---,0.00,VWS V14.01,2013-08-31 11:16:00,
2013-08-31 07:21:00,72.8,70.7,29.89,SW,215,5.0,13.0,93,0.00,,---,0.00,VWS V14.01,2013-08-31 11:21:00,
2013-08-31 07:26:00,73.0,70.9,29.89,South,172,3.0,13.0,93,0.00,,---,0.00,VWS V14.01,2013-08-31 11:26:00,
2013-08-31 07:30:00,73.2,71.1,29.89,SSW,208,6.0,13.0,93,0.00,,---,0.00,VWS V14.01,2013-08-31 11:30:00,
2013-08-31 07:31:00,73.2,71.1,29.89,SSW,208,6.0,13.0,93,0.00,,---,0.00,VWS V14.01,2013-08-31 11:31:00,
2013-08-31 07:36:00,73.3,71.2,29.89,SSW,206,6.0,11.0,93,0.00,,---,0.00,VWS V14.01,2013-08-31 11:36:00,
2013-08-31 07:41:00,73.6,71.1,29.89,South,169,10.0,12.0,92,0.00,,---,0.00,VWS V14.01,2013-08-31 11:41:00,
2013-08-31 07:46:00,73.8,71.3,29.89,SSE,158,6.0,13.0,92,0.00,,---,0.00,VWS V14.01,2013-08-31 11:46:00,
2013-08-31 07:51:00,74.0,71.5,29.89,SW,224,7.0,13.0,92,0.00,,---,0.00,VWS V14.01,2013-08-31 11:51:00,
2013-08-31 07:56:00,74.2,71.7,29.89,SW,218,6.0,13.0,92,0.00,,---,0.00,VWS V14.01,2013-08-31 11:56:00,
2013-08-31 08:00:00,74.4,71.9,29.89,NNW,330,6.0,13.0,92,0.00,,---,0.00,VWS V14.01,2013-08-31 12:00:00,
2013-08-31 08:01:00,74.4,71.9,29.89,SE,129,6.0,6.0,92,0.00,,---,0.00,VWS V14.01,2013-08-31 12:01:00,
2013-08-31 08:06:00,74.5,71.7,29.89,SW,223,8.0,13.0,91,0.00,,---,0.00,VWS V14.01,2013-08-31 12:06:00,
2013-08-31 08:11:00,74.6,71.8,29.89,West,271,8.0,13.0,91,0.00,,---,0.00,VWS V14.01,2013-08-31 12:11:00,
2013-08-31 08:16:00,74.9,72.1,29.89,NW,309,4.0,14.0,91,0.00,,---,0.00,VWS V14.01,2013-08-31 12:16:00,
2013-08-31 08:21:00,75.0,71.9,29.88,SSW,212,8.0,15.0,90,0.00,,---,0.00,VWS V14.01,2013-08-31 12:21:00,
2013-08-31 08:26:00,75.2,72.1,29.89,WNW,293,7.0,16.0,90,0.00,,---,0.00,VWS V14.01,2013-08-31 12:26:00,
2013-08-31 08:30:00,75.3,72.2,29.88,SSW,204,5.0,16.0,90,0.00,,---,0.00,VWS V14.01,2013-08-31 12:30:00,
2013-08-31 08:31:00,75.3,72.2,29.89,SSW,202,6.0,6.0,90,0.00,,---,0.00,VWS V14.01,2013-08-31 12:31:00,
2013-08-31 08:36:00,75.3,72.2,29.89,SSW,208,5.0,13.0,90,0.00,,---,0.00,VWS V14.01,2013-08-31 12:36:00,
2013-08-31 08:41:00,75.5,72.4,29.89,East,95,9.0,15.0,90,0.00,,---,0.00,VWS V14.01,2013-08-31 12:41:00,
2013-08-31 08:46:00,75.5,72.4,29.89,SW,217,4.0,15.0,90,0.00,,---,0.00,VWS V14.01,2013-08-31 12:46:00,
2013-08-31 08:51:00,75.5,72.4,29.88,South,181,6.0,15.0,90,0.00,,---,0.00,VWS V14.01,2013-08-31 12:51:00,
2013-08-31 08:56:00,75.7,72.6,29.88,SW,222,7.0,15.0,90,0.00,,---,0.00,VWS V14.01,2013-08-31 12:56:00,
2013-08-31 09:00:00,75.8,72.7,29.88,South,173,5.0,15.0,90,0.00,,---,0.00,VWS V14.01,2013-08-31 13:00:00,
2013-08-31 09:01:00,75.8,72.7,29.89,West,271,4.0,5.0,90,0.00,,---,0.00,VWS V14.01,2013-08-31 13:01:00,
2013-08-31 09:06:00,75.9,72.4,29.89,SSE,160,7.0,16.0,89,0.00,,---,0.00,VWS V14.01,2013-08-31 13:06:00,
2013-08-31 09:11:00,76.1,72.6,29.89,SE,146,5.0,16.0,89,0.00,,---,0.00,VWS V14.01,2013-08-31 13:11:00,
2013-08-31 09:16:00,76.3,72.8,29.89,East,89,10.0,16.0,89,0.00,,---,0.00,VWS V14.01,2013-08-31 13:16:00,
2013-08-31 09:21:00,76.3,72.8,29.89,SW,219,9.0,16.0,89,0.00,,---,0.00,VWS V14.01,2013-08-31 13:21:00,
2013-08-31 09:26:00,76.2,72.7,29.89,SE,142,7.0,16.0,89,0.00,,---,0.00,VWS V14.01,2013-08-31 13:26:00,
2013-08-31 09:30:00,76.5,73.0,29.89,ESE,108,9.0,16.0,89,0.00,,---,0.00,VWS V14.01,2013-08-31 13:30:00,
2013-08-31 09:31:00,76.5,73.0,29.89,ESE,117,12.0,12.0,89,0.00,,---,0.00,VWS V14.01,2013-08-31 13:31:00,
2013-08-31 09:36:00,76.6,72.8,29.89,East,99,13.0,15.0,88,0.00,,---,0.00,VWS V14.01,2013-08-31 13:36:00,
2013-08-31 09:41:00,76.7,72.9,29.89,NE,49,8.0,15.0,88,0.00,,---,0.00,VWS V14.01,2013-08-31 13:41:00,
2013-08-31 09:46:00,76.8,73.0,29.89,South,183,6.0,15.0,88,0.00,,---,0.00,VWS V14.01,2013-08-31 13:46:00,
2013-08-31 09:51:00,76.7,72.5,29.89,SW,218,12.0,15.0,87,0.00,,---,0.00,VWS V14.01,2013-08-31 13:51:00,
2013-08-31 09:56:00,76.8,73.0,29.89,SSE,153,6.0,17.0,88,0.00,,---,0.00,VWS V14.01,2013-08-31 13:56:00,
2013-08-31 10:00:00,76.9,73.1,29.89,SSW,202,11.0,17.0,88,0.00,,---,0.00,VWS V14.01,2013-08-31 14:00:00,
2013-08-31 10:01:00,76.9,73.1,29.89,SW,221,4.0,5.0,88,0.00,,---,0.00,VWS V14.01,2013-08-31 14:01:00,
2013-08-31 10:06:00,77.2,73.0,29.89,South,182,10.0,15.0,87,0.00,,---,0.00,VWS V14.01,2013-08-31 14:06:00,
2013-08-31 10:11:00,77.2,73.0,29.89,SW,219,6.0,15.0,87,0.00,,---,0.00,VWS V14.01,2013-08-31 14:11:00,
2013-08-31 10:16:00,77.1,72.9,29.89,South,174,7.0,15.0,87,0.00,,---,0.00,VWS V14.01,2013-08-31 14:16:00,
2013-08-31 10:21:00,76.8,72.6,29.89,SSW,208,8.0,15.0,87,0.00,,---,0.00,VWS V14.01,2013-08-31 14:21:00,
2013-08-31 10:26:00,76.7,72.9,29.89,SW,218,10.0,16.0,88,0.00,,---,0.00,VWS V14.01,2013-08-31 14:26:00,
2013-08-31 10:30:00,77.0,72.8,29.88,East,88,9.0,16.0,87,0.00,,---,0.00,VWS V14.01,2013-08-31 14:30:00,
2013-08-31 10:31:00,77.0,72.8,29.89,SW,233,11.0,16.0,87,0.00,,---,0.00,VWS V14.01,2013-08-31 14:31:00,
2013-08-31 10:36:00,77.5,73.0,29.89,SSE,166,6.0,17.0,86,0.00,,---,0.00,VWS V14.01,2013-08-31 14:36:00,
2013-08-31 10:41:00,77.6,73.1,29.89,SSE,160,8.0,17.0,86,0.00,,---,0.00,VWS V14.01,2013-08-31 14:41:00,
2013-08-31 10:46:00,77.9,73.4,29.89,WSW,258,11.0,17.0,86,0.00,,---,0.00,VWS V14.01,2013-08-31 14:46:00,
2013-08-31 10:51:00,77.8,72.9,29.89,SSE,163,9.0,17.0,85,0.00,,---,0.00,VWS V14.01,2013-08-31 14:51:00,
2013-08-31 10:56:00,78.0,73.5,29.89,SSE,149,3.0,17.0,86,0.00,,---,0.00,VWS V14.01,2013-08-31 14:56:00,
2013-08-31 11:00:00,78.0,73.1,29.89,SW,225,9.0,17.0,85,0.00,,---,0.00,VWS V14.01,2013-08-31 15:00:00,
2013-08-31 11:01:00,78.0,73.1,29.89,North,354,3.0,9.0,85,0.00,,---,0.00,VWS V14.01,2013-08-31 15:01:00,
2013-08-31 11:06:00,78.3,73.4,29.89,NNE,29,5.0,13.0,85,0.00,,---,0.00,VWS V14.01,2013-08-31 15:06:00,
2013-08-31 11:11:00,78.3,73.1,29.88,North,352,6.0,14.0,84,0.00,,---,0.00,VWS V14.01,2013-08-31 15:11:00,
2013-08-31 11:16:00,78.3,73.4,29.89,SE,146,5.0,14.0,85,0.00,,---,0.00,VWS V14.01,2013-08-31 15:16:00,
2013-08-31 11:21:00,78.4,73.5,29.88,West,278,6.0,14.0,85,0.00,,---,0.00,VWS V14.01,2013-08-31 15:21:00,
2013-08-31 11:26:00,78.6,73.4,29.89,WSW,243,12.0,14.0,84,0.00,,---,0.00,VWS V14.01,2013-08-31 15:26:00,
2013-08-31 11:30:00,78.5,73.3,29.88,SW,222,11.0,14.0,84,0.00,,---,0.00,VWS V14.01,2013-08-31 15:30:00,
2013-08-31 11:31:00,78.5,73.3,29.88,ENE,64,7.0,13.0,84,0.00,,---,0.00,VWS V14.01,2013-08-31 15:31:00,
2013-08-31 11:36:00,78.8,73.6,29.88,WNW,288,7.0,15.0,84,0.00,,---,0.00,VWS V14.01,2013-08-31 15:36:00,
2013-08-31 11:41:00,78.8,73.6,29.88,SW,229,11.0,17.0,84,0.00,,---,0.00,VWS V14.01,2013-08-31 15:41:00,
2013-08-31 11:46:00,78.7,73.5,29.88,SSW,207,10.0,17.0,84,0.00,,---,0.00,VWS V14.01,2013-08-31 15:46:00,
2013-08-31 11:51:00,78.8,73.2,29.87,NNE,23,10.0,17.0,83,0.00,,---,0.00,VWS V14.01,2013-08-31 15:51:00,
2013-08-31 11:56:00,78.8,73.6,29.87,SSE,148,6.0,17.0,84,0.00,,---,0.00,VWS V14.01,2013-08-31 15:56:00,
2013-08-31 12:00:00,79.1,73.5,29.87,SW,235,6.0,17.0,83,0.00,,---,0.00,VWS V14.01,2013-08-31 16:00:00,
2013-08-31 12:01:00,79.1,73.5,29.87,SSE,166,6.0,9.0,83,0.00,,---,0.00,VWS V14.01,2013-08-31 16:01:00,
2013-08-31 12:06:00,79.2,73.6,29.88,SSW,209,8.0,16.0,83,0.00,,---,0.00,VWS V14.01,2013-08-31 16:06:00,
2013-08-31 12:11:00,79.3,73.3,29.87,ENE,61,5.0,16.0,82,0.00,,---,0.00,VWS V14.01,2013-08-31 16:11:00,
2013-08-31 12:16:00,79.2,73.2,29.87,SW,224,7.0,16.0,82,0.00,,---,0.00,VWS V14.01,2013-08-31 16:16:00,
2013-08-31 12:21:00,79.3,73.7,29.87,ENE,72,6.0,16.0,83,0.00,,---,0.00,VWS V14.01,2013-08-31 16:21:00,
2013-08-31 12:26:00,79.0,73.4,29.87,East,95,8.0,18.0,83,0.00,,---,0.00,VWS V14.01,2013-08-31 16:26:00,
2013-08-31 12:30:00,78.5,72.9,29.87,SSW,193,9.0,18.0,83,0.00,,---,0.00,VWS V14.01,2013-08-31 16:30:00,
2013-08-31 12:31:00,78.5,73.3,29.87,SW,233,6.0,13.0,84,0.00,,---,0.00,VWS V14.01,2013-08-31 16:31:00,
2013-08-31 12:36:00,78.8,73.6,29.87,WNW,291,4.0,13.0,84,0.00,,---,0.00,VWS V14.01,2013-08-31 16:36:00,
2013-08-31 12:41:00,79.0,73.4,29.87,West,266,10.0,16.0,83,0.00,,---,0.00,VWS V14.01,2013-08-31 16:41:00,
2013-08-31 12:46:00,79.0,73.4,29.87,NNE,26,10.0,17.0,83,0.00,,---,0.00,VWS V14.01,2013-08-31 16:46:00,
2013-08-31 12:51:00,78.9,73.3,29.87,WNW,289,8.0,17.0,83,0.00,,---,0.00,VWS V14.01,2013-08-31 16:51:00,
2013-08-31 12:56:00,78.6,73.4,29.86,SSW,204,11.0,17.0,84,0.00,,---,0.00,VWS V14.01,2013-08-31 16:56:00,
2013-08-31 13:00:00,78.7,73.5,29.87,SSW,194,15.0,17.0,84,0.00,,---,0.00,VWS V14.01,2013-08-31 17:00:00,
2013-08-31 13:01:00,78.8,73.2,29.86,NW,319,7.0,13.0,83,0.00,,---,0.00,VWS V14.01,2013-08-31 17:01:00,
2013-08-31 13:06:00,79.0,73.4,29.87,SSW,195,12.0,18.0,83,0.00,,---,0.00,VWS V14.01,2013-08-31 17:06:00,
2013-08-31 13:11:00,79.0,73.4,29.87,North,9,7.0,18.0,83,0.00,,---,0.00,VWS V14.01,2013-08-31 17:11:00,
2013-08-31 13:16:00,78.7,73.5,29.86,SSW,205,10.0,18.0,84,0.00,,---,0.00,VWS V14.01,2013-08-31 17:16:00,
2013-08-31 13:21:00,78.8,73.6,29.86,South,173,6.0,18.0,84,0.00,,---,0.00,VWS V14.01,2013-08-31 17:21:00,
2013-08-31 13:26:00,79.2,73.6,29.87,WSW,250,6.0,18.0,83,0.00,,---,0.00,VWS V14.01,2013-08-31 17:26:00,
2013-08-31 13:30:00,79.3,73.7,29.87,SE,124,9.0,18.0,83,0.00,,---,0.00,VWS V14.01,2013-08-31 17:30:00,
2013-08-31 13:31:00,79.3,73.7,29.87,SE,136,8.0,12.0,83,0.00,,---,0.00,VWS V14.01,2013-08-31 17:31:00,
2013-08-31 13:36:00,79.2,73.6,29.86,WSW,248,7.0,15.0,83,0.00,,---,0.00,VWS V14.01,2013-08-31 17:36:00,
2013-08-31 13:41:00,79.1,73.8,29.86,SSW,204,6.0,17.0,84,0.00,,---,0.00,VWS V14.01,2013-08-31 17:41:00,
2013-08-31 13:46:00,79.3,73.7,29.87,South,169,8.0,17.0,83,0.00,,---,0.00,VWS V14.01,2013-08-31 17:46:00,
2013-08-31 13:52:00,79.2,73.6,29.87,SW,214,6.0,17.0,83,0.00,,---,0.00,VWS V14.01,2013-08-31 17:52:00,
2013-08-31 13:57:00,79.1,73.5,29.86,SW,215,10.0,18.0,83,0.00,,---,0.00,VWS V14.01,2013-08-31 17:57:00,
2013-08-31 14:00:00,79.3,73.7,29.87,SSW,193,9.0,18.0,83,0.00,,---,0.00,VWS V14.01,2013-08-31 18:00:00,
2013-08-31 14:02:00,79.4,73.8,29.86,SW,214,7.0,11.0,83,0.00,,---,0.00,VWS V14.01,2013-08-31 18:02:00,
2013-08-31 14:07:00,79.5,73.9,29.86,SSE,154,7.0,14.0,83,0.00,,---,0.00,VWS V14.01,2013-08-31 18:07:00,
2013-08-31 14:12:00,79.5,73.9,29.86,West,263,9.0,14.0,83,0.00,,---,0.00,VWS V14.01,2013-08-31 18:12:00,
2013-08-31 14:17:00,79.3,73.7,29.86,East,95,10.0,18.0,83,0.00,,---,0.00,VWS V14.01,2013-08-31 18:17:00,
2013-08-31 14:22:00,79.3,73.7,29.86,SE,139,9.0,18.0,83,0.00,,---,0.00,VWS V14.01,2013-08-31 18:22:00,
2013-08-31 14:27:00,79.2,73.9,29.87,WNW,297,9.0,18.0,84,0.00,,---,0.00,VWS V14.01,2013-08-31 18:27:00,
2013-08-31 14:30:00,79.0,73.4,29.86,SSW,192,11.0,18.0,83,0.00,,---,0.00,VWS V14.01,2013-08-31 18:30:00,
2013-08-31 14:32:00,78.9,73.3,29.86,South,191,9.0,14.0,83,0.00,,---,0.00,VWS V14.01,2013-08-31 18:32:00,
2013-08-31 14:37:00,78.8,73.6,29.86,WNW,286,11.0,15.0,84,0.00,,---,0.00,VWS V14.01,2013-08-31 18:37:00,
2013-08-31 14:42:00,78.9,73.7,29.86,NNW,333,6.0,15.0,84,0.00,,---,0.00,VWS V14.01,2013-08-31 18:42:00,
2013-08-31 14:47:00,79.0,73.4,29.86,SSW,198,4.0,15.0,83,0.00,,---,0.00,VWS V14.01,2013-08-31 18:47:00,
2013-08-31 14:52:00,78.7,73.5,29.85,SW,219,12.0,15.0,84,0.00,,---,0.00,VWS V14.01,2013-08-31 18:52:00,
2013-08-31 14:57:00,78.5,73.6,29.86,SSE,158,8.0,17.0,85,0.00,,---,0.00,VWS V14.01,2013-08-31 18:57:00,
2013-08-31 15:00:00,78.6,73.4,29.86,SSE,158,8.0,17.0,84,0.00,,---,0.00,VWS V14.01,2013-08-31 19:00:00,
2013-08-31 15:02:00,78.7,73.5,29.86,SW,214,6.0,14.0,84,0.00,,---,0.00,VWS V14.01,2013-08-31 19:02:00,
2013-08-31 15:07:00,78.5,73.3,29.85,SW,224,11.0,14.0,84,0.00,,---,0.00,VWS V14.01,2013-08-31 19:07:00,
2013-08-31 15:12:00,78.3,73.4,29.85,ENE,77,5.0,16.0,85,0.00,,---,0.00,VWS V14.01,2013-08-31 19:12:00,
2013-08-31 15:17:00,78.5,73.6,29.86,West,269,8.0,16.0,85,0.00,,---,0.00,VWS V14.01,2013-08-31 19:17:00,
2013-08-31 15:22:00,78.5,73.6,29.85,ESE,102,5.0,16.0,85,0.00,,---,0.00,VWS V14.01,2013-08-31 19:22:00,
2013-08-31 15:27:00,78.7,73.5,29.85,South,182,7.0,17.0,84,0.00,,---,0.00,VWS V14.01,2013-08-31 19:27:00,
2013-08-31 15:30:00,78.9,73.7,29.85,SSW,212,5.0,17.0,84,0.00,,---,0.00,VWS V14.01,2013-08-31 19:30:00,
2013-08-31 15:32:00,78.9,73.7,29.85,NW,324,10.0,13.0,84,0.00,,---,0.00,VWS V14.01,2013-08-31 19:32:00,
2013-08-31 15:37:00,79.0,73.4,29.85,East,90,6.0,16.0,83,0.00,,---,0.00,VWS V14.01,2013-08-31 19:37:00,
2013-08-31 15:42:00,78.5,73.3,29.85,ENE,57,10.0,17.0,84,0.00,,---,0.00,VWS V14.01,2013-08-31 19:42:00,
2013-08-31 15:47:00,78.6,73.4,29.84,SSE,148,8.0,17.0,84,0.00,,---,0.00,VWS V14.01,2013-08-31 19:47:00,
2013-08-31 15:52:00,78.8,73.6,29.84,SE,127,8.0,17.0,84,0.00,,---,0.00,VWS V14.01,2013-08-31 19:52:00,
2013-08-31 15:57:00,79.1,73.5,29.84,NE,41,4.0,17.0,83,0.00,,---,0.00,VWS V14.01,2013-08-31 19:57:00,
2013-08-31 16:00:00,79.2,73.6,29.84,ENE,65,10.0,17.0,83,0.00,,---,0.00,VWS V14.01,2013-08-31 20:00:00,
2013-08-31 16:02:00,79.1,73.5,29.84,West,266,6.0,11.0,83,0.00,,---,0.00,VWS V14.01,2013-08-31 20:02:00,
2013-08-31 16:07:00,79.0,73.4,29.84,NW,307,6.0,13.0,83,0.00,,---,0.00,VWS V14.01,2013-08-31 20:07:00,
2013-08-31 16:12:00,79.0,73.8,29.84,South,180,9.0,14.0,84,0.00,,---,0.00,VWS V14.01,2013-08-31 20:12:00,
2013-08-31 16:17:00,79.1,73.5,29.84,South,187,7.0,14.0,83,0.00,,---,0.00,VWS V14.01,2013-08-31 20:17:00,
2013-08-31 16:22:00,79.2,73.6,29.83,SE,129,7.0,14.0,83,0.00,,---,0.00,VWS V14.01,2013-08-31 20:22:00,
2013-08-31 16:27:00,79.1,73.5,29.83,South,188,11.0,14.0,83,0.00,,---,0.00,VWS V14.01,2013-08-31 20:27:00,
2013-08-31 16:30:00,78.8,73.2,29.83,SW,236,13.0,14.0,83,0.00,,---,0.00,VWS V14.01,2013-08-31 20:30:00,
2013-08-31 16:32:00,78.7,73.5,29.83,SW,219,7.0,13.0,84,0.00,,---,0.00,VWS V14.01,2013-08-31 20:32:00,
2013-08-31 16:37:00,78.4,73.5,29.83,NE,51,6.0,14.0,85,0.00,,---,0.00,VWS V14.01,2013-08-31 20:37:00,
2013-08-31 16:42:00,78.3,73.1,29.83,WSW,237,6.0,14.0,84,0.00,,---,0.00,VWS V14.01,2013-08-31 20:42:00,
2013-08-31 16:47:00,78.1,73.2,29.83,ENE,60,10.0,14.0,85,0.00,,---,0.00,VWS V14.01,2013-08-31 20:47:00,
2013-08-31 16:52:00,78.1,73.2,29.83,West,264,13.0,17.0,85,0.00,,---,0.00,VWS V14.01,2013-08-31 20:52:00,
2013-08-31 16:57:00,78.3,73.1,29.82,SSE,148,8.0,17.0,84,0.00,,---,0.00,VWS V14.01,2013-08-31 20:57:00,
2013-08-31 17:00:00,78.4,73.2,29.82,WSW,245,8.0,17.0,84,0.00,,---,0.00,VWS V14.01,2013-08-31 21:00:00,
2013-08-31 17:02:00,78.4,73.2,29.82,SSW,198,9.0,14.0,84,0.00,,---,0.00,VWS V14.01,2013-08-31 21:02:00,
2013-08-31 17:07:00,78.2,73.0,29.83,SW,215,13.0,17.0,84,0.00,,---,0.00,VWS V14.01,2013-08-31 21:07:00,
2013-08-31 17:12:00,78.0,72.8,29.83,ENE,77,16.0,17.0,84,0.00,,---,0.00,VWS V14.01,2013-08-31 21:12:00,
2013-08-31 17:17:00,77.7,72.8,29.82,WNW,300,11.0,17.0,85,0.00,,---,0.00,VWS V14.01,2013-08-31 21:17:00,
2013-08-31 17:22:00,77.6,72.7,29.82,SSE,167,8.0,17.0,85,0.00,,---,0.00,VWS V14.01,2013-08-31 21:22:00,
2013-08-31 17:27:00,77.4,72.5,29.82,South,172,13.0,17.0,85,0.00,,---,0.00,VWS V14.01,2013-08-31 21:27:00,
2013-08-31 17:30:00,77.3,72.4,29.82,ESE,106,15.0,17.0,85,0.00,,---,0.00,VWS V14.01,2013-08-31 21:30:00,
2013-08-31 17:32:00,77.3,72.4,29.82,SSW,195,12.0,17.0,85,0.00,,---,0.00,VWS V14.01,2013-08-31 21:32:00,
2013-08-31 17:37:00,77.1,72.6,29.82,SSW,205,13.0,17.0,86,0.00,,---,0.00,VWS V14.01,2013-08-31 21:37:00,
2013-08-31 17:42:00,76.8,72.3,29.82,East,100,9.0,17.0,86,0.00,,---,0.00,VWS V14.01,2013-08-31 21:42:00,
2013-08-31 17:47:00,76.7,72.5,29.82,SE,133,14.0,17.0,87,0.00,,---,0.00,VWS V14.01,2013-08-31 21:47:00,
2013-08-31 17:52:00,76.5,72.3,29.82,West,278,9.0,17.0,87,0.00,,---,0.00,VWS V14.01,2013-08-31 21:52:00,
2013-08-31 17:57:00,76.4,72.2,29.83,WSW,253,7.0,17.0,87,0.00,,---,0.00,VWS V14.01,2013-08-31 21:57:00,
2013-08-31 18:00:00,76.4,72.6,29.82,SSE,162,5.0,17.0,88,0.00,,---,0.00,VWS V14.01,2013-08-31 22:00:00,
2013-08-31 18:02:00,76.4,72.6,29.83,NNE,30,12.0,12.0,88,0.00,,---,0.00,VWS V14.01,2013-08-31 22:02:00,
2013-08-31 18:07:00,76.3,72.5,29.83,SW,221,6.0,15.0,88,0.00,,---,0.00,VWS V14.01,2013-08-31 22:07:00,
2013-08-31 18:12:00,76.2,72.4,29.83,SW,217,14.0,15.0,88,0.00,,---,0.00,VWS V14.01,2013-08-31 22:12:00,
2013-08-31 18:17:00,75.9,72.4,29.83,NNW,337,14.0,19.0,89,0.00,,---,0.00,VWS V14.01,2013-08-31 22:17:00,
2013-08-31 18:22:00,75.7,72.2,29.82,SW,224,6.0,19.0,89,0.00,,---,0.00,VWS V14.01,2013-08-31 22:22:00,
2013-08-31 18:27:00,75.5,72.4,29.82,SW,221,12.0,19.0,90,0.00,,---,0.00,VWS V14.01,2013-08-31 22:27:00,
2013-08-31 18:30:00,75.4,72.3,29.82,SSW,201,6.0,19.0,90,0.00,,---,0.00,VWS V14.01,2013-08-31 22:30:00,
2013-08-31 18:32:00,75.4,72.3,29.82,WSW,257,4.0,13.0,90,0.00,,---,0.00,VWS V14.01,2013-08-31 22:32:00,
2013-08-31 18:37:00,75.5,72.4,29.82,WSW,244,9.0,16.0,90,0.00,,---,0.00,VWS V14.01,2013-08-31 22:37:00,
2013-08-31 18:42:00,75.6,72.5,29.82,SW,221,10.0,16.0,90,0.00,,---,0.00,VWS V14.01,2013-08-31 22:42:00,
2013-08-31 18:47:00,75.5,72.4,29.83,NNE,23,3.0,16.0,90,0.00,,---,0.00,VWS V14.01,2013-08-31 22:47:00,
2013-08-31 18:52:00,75.4,72.6,29.83,NE,48,4.0,18.0,91,0.00,,---,0.00,VWS V14.01,2013-08-31 22:52:00,
2013-08-31 18:57:00,75.3,72.5,29.83,SW,214,8.0,18.0,91,0.00,,---,0.00,VWS V14.01,2013-08-31 22:57:00,
2013-08-31 19:00:00,75.2,72.4,29.83,West,264,9.0,18.0,91,0.00,,---,0.00,VWS V14.01,2013-08-31 23:00:00,
2013-08-31 19:02:00,75.2,72.4,29.83,WSW,238,12.0,13.0,91,0.00,,---,0.00,VWS V14.01,2013-08-31 23:02:00,
2013-08-31 19:07:00,75.0,72.2,29.83,SSW,203,9.0,16.0,91,0.00,,---,0.00,VWS V14.01,2013-08-31 23:07:00,
2013-08-31 19:12:00,74.9,72.1,29.83,SW,223,9.0,16.0,91,0.00,,---,0.00,VWS V14.01,2013-08-31 23:12:00,
2013-08-31 19:17:00,74.8,72.3,29.83,NNW,345,11.0,16.0,92,0.00,,---,0.00,VWS V14.01,2013-08-31 23:17:00,
2013-08-31 19:22:00,74.8,72.3,29.83,SSW,193,10.0,16.0,92,0.00,,---,0.00,VWS V14.01,2013-08-31 23:22:00,
2013-08-31 19:27:00,74.7,72.2,29.83,East,84,10.0,16.0,92,0.00,,---,0.00,VWS V14.01,2013-08-31 23:27:00,
2013-08-31 19:30:00,74.7,72.2,29.83,NNW,338,4.0,16.0,92,0.00,,---,0.00,VWS V14.01,2013-08-31 23:30:00,
2013-08-31 19:32:00,74.7,72.2,29.84,East,98,11.0,17.0,92,0.00,,---,0.00,VWS V14.01,2013-08-31 23:32:00,
2013-08-31 19:37:00,74.7,72.2,29.84,SE,124,8.0,17.0,92,0.00,,---,0.00,VWS V14.01,2013-08-31 23:37:00,
2013-08-31 19:42:00,74.7,72.2,29.83,SSW,212,7.0,18.0,92,0.00,,---,0.00,VWS V14.01,2013-08-31 23:42:00,
2013-08-31 19:47:00,74.7,72.2,29.84,SSE,149,10.0,18.0,92,0.00,,---,0.00,VWS V14.01,2013-08-31 23:47:00,
2013-08-31 19:52:00,74.6,72.1,29.84,SW,222,6.0,18.0,92,0.00,,---,0.00,VWS V14.01,2013-08-31 23:52:00,
2013-08-31 19:57:00,74.6,72.4,29.84,SSW,213,5.0,18.0,93,0.00,,---,0.00,VWS V14.01,2013-08-31 23:57:00,
2013-08-31 20:00:00,74.5,72.3,29.84,SE,131,6.0,18.0,93,0.00,,---,0.00,VWS V14.01,2013-09-01 00:00:00,
2013-08-31 20:02:00,74.5,72.3,29.85,SE,133,7.0,8.0,93,0.00,,---,0.00,VWS V14.01,2013-09-01 00:02:00,
2013-08-31 20:07:00,74.4,72.2,29.85,NNW,346,5.0,20.0,93,0.00,,---,0.00,VWS V14.01,2013-09-01 00:07:00,
2013-08-31 20:12:00,74.4,72.2,29.85,SSE,151,9.0,20.0,93,0.00,,---,0.00,VWS V14.01,2013-09-01 00:12:00,
2013-08-31 20:17:00,74.3,72.2,29.85,SSE,148,12.0,20.0,93,0.00,,---,0.00,VWS V14.01,2013-09-01 00:17:00,
2013-08-31 20:22:00,74.2,72.1,29.85,East,93,7.0,7.0,93,0.00,,---,0.00,VWS V14.01,2013-09-01 00:22:00,
2013-08-31 20:27:00,74.2,72.1,29.86,NNW,338,9.0,15.0,93,0.00,,---,0.00,VWS V14.01,2013-09-01 00:27:00,
2013-08-31 20:30:00,74.2,72.1,29.86,SSW,205,10.0,17.0,93,0.00,,---,0.00,VWS V14.01,2013-09-01 00:30:00,
2013-08-31 20:32:00,74.2,72.1,29.86,WSW,251,9.0,15.0,93,0.00,,---,0.00,VWS V14.01,2013-09-01 00:32:00,
2013-08-31 20:37:00,74.2,72.1,29.86,SSW,198,9.0,17.0,93,0.00,,---,0.00,VWS V14.01,2013-09-01 00:37:00,
2013-08-31 20:42:00,74.3,72.2,29.86,WSW,243,10.0,17.0,93,0.00,,---,0.00,VWS V14.01,2013-09-01 00:42:00,
2013-08-31 20:47:00,74.3,72.2,29.86,SW,217,14.0,17.0,93,0.00,,---,0.00,VWS V14.01,2013-09-01 00:47:00,
2013-08-31 20:52:00,74.3,72.2,29.86,SSW,204,12.0,17.0,93,0.00,,---,0.00,VWS V14.01,2013-09-01 00:52:00,
2013-08-31 20:57:00,74.3,72.2,29.86,NE,49,10.0,17.0,93,0.00,,---,0.00,VWS V14.01,2013-09-01 00:57:00,
2013-08-31 21:02:00,74.3,72.2,29.86,SSW,195,9.0,9.0,93,0.00,,---,0.00,VWS V14.01,2013-09-01 01:02:00,
2013-08-31 21:07:00,74.3,72.2,29.86,North,349,4.0,15.0,93,0.00,,---,0.00,VWS V14.01,2013-09-01 01:07:00,
2013-08-31 21:12:00,74.2,72.1,29.86,ESE,118,7.0,17.0,93,0.00,,---,0.00,VWS V14.01,2013-09-01 01:12:00,
2013-08-31 21:17:00,74.2,72.1,29.86,SSW,193,10.0,17.0,93,0.00,,---,0.00,VWS V14.01,2013-09-01 01:17:00,
2013-08-31 21:22:00,74.2,72.1,29.86,WSW,247,7.0,18.0,93,0.00,,---,0.00,VWS V14.01,2013-09-01 01:22:00,
2013-08-31 21:27:00,74.2,72.1,29.86,WSW,238,6.0,18.0,93,0.00,,---,0.00,VWS V14.01,2013-09-01 01:27:00,
2013-08-31 21:30:00,74.2,72.1,29.86,SW,229,13.0,18.0,93,0.00,,---,0.00,VWS V14.01,2013-09-01 01:30:00,
2013-08-31 21:32:00,74.2,72.1,29.86,SSW,209,8.0,13.0,93,0.00,,---,0.00,VWS V14.01,2013-09-01 01:32:00,
2013-08-31 21:37:00,74.2,72.1,29.87,SSW,201,5.0,15.0,93,0.00,,---,0.00,VWS V14.01,2013-09-01 01:37:00,
2013-08-31 21:42:00,74.2,72.1,29.86,South,184,6.0,16.0,93,0.00,,---,0.00,VWS V14.01,2013-09-01 01:42:00,
2013-08-31 21:47:00,74.2,72.1,29.87,SW,221,8.0,16.0,93,0.00,,---,0.00,VWS V14.01,2013-09-01 01:47:00,
2013-08-31 21:52:00,74.2,72.1,29.87,NE,42,8.0,18.0,93,0.00,,---,0.00,VWS V14.01,2013-09-01 01:52:00,
2013-08-31 21:57:00,74.2,72.1,29.87,SSE,163,6.0,18.0,93,0.00,,---,0.00,VWS V14.01,2013-09-01 01:57:00,
2013-08-31 22:00:00,74.1,71.9,29.87,North,8,11.0,18.0,93,0.00,,---,0.00,VWS V14.01,2013-09-01 02:00:00,
2013-08-31 22:02:00,74.2,72.1,29.87,WSW,251,12.0,12.0,93,0.00,,---,0.00,VWS V14.01,2013-09-01 02:02:00,
2013-08-31 22:07:00,74.1,71.9,29.87,ENE,68,12.0,20.0,93,0.00,,---,0.00,VWS V14.01,2013-09-01 02:07:00,
2013-08-31 22:12:00,74.1,72.3,29.87,ENE,67,10.0,20.0,94,0.00,,---,0.00,VWS V14.01,2013-09-01 02:12:00,
2013-08-31 22:18:00,74.1,72.3,29.87,East,95,6.0,6.0,94,0.00,,---,0.00,VWS V14.01,2013-09-01 02:18:00,
2013-08-31 22:23:00,74.1,72.3,29.87,SW,231,11.0,15.0,94,0.00,,---,0.00,VWS V14.01,2013-09-01 02:23:00,
2013-08-31 22:28:00,74.1,72.3,29.87,SSW,205,8.0,16.0,94,0.00,,---,0.00,VWS V14.01,2013-09-01 02:28:00,
2013-08-31 22:33:00,74.1,72.3,29.87,WSW,237,5.0,17.0,94,0.00,,---,0.00,VWS V14.01,2013-09-01 02:33:00,
2013-08-31 22:38:00,74.1,72.3,29.87,SE,134,8.0,17.0,94,0.00,,---,0.00,VWS V14.01,2013-09-01 02:38:00,
2013-08-31 22:43:00,74.1,72.3,29.87,SSW,195,7.0,17.0,94,0.00,,---,0.00,VWS V14.01,2013-09-01 02:43:00,
2013-08-31 22:48:00,74.0,72.2,29.87,North,8,9.0,18.0,94,0.00,,---,0.00,VWS V14.01,2013-09-01 02:48:00,
2013-08-31 22:53:00,74.0,72.2,29.86,NNW,335,6.0,18.0,94,0.00,,---,0.00,VWS V14.01,2013-09-01 02:53:00,
2013-08-31 22:58:00,74.0,72.2,29.87,SSW,193,11.0,18.0,94,0.00,,---,0.00,VWS V14.01,2013-09-01 02:58:00,
2013-08-31 23:03:00,73.9,72.1,29.87,SSW,212,7.0,15.0,94,0.00,,---,0.00,VWS V14.01,2013-09-01 03:03:00,
2013-08-31 23:08:00,73.9,72.1,29.87,SW,231,6.0,15.0,94,0.00,,---,0.00,VWS V14.01,2013-09-01 03:08:00,
2013-08-31 23:13:00,73.9,72.1,29.87,SSW,201,9.0,15.0,94,0.00,,---,0.00,VWS V14.01,2013-09-01 03:13:00,
2013-08-31 23:18:00,73.9,72.1,29.86,SSW,196,10.0,16.0,94,0.00,,---,0.00,VWS V14.01,2013-09-01 03:18:00,
2013-08-31 23:23:00,73.8,72.0,29.86,WSW,238,8.0,16.0,94,0.00,,---,0.00,VWS V14.01,2013-09-01 03:23:00,
2013-08-31 23:28:00,73.8,72.0,29.87,SW,216,8.0,16.0,94,0.00,,---,0.00,VWS V14.01,2013-09-01 03:28:00,
2013-08-31 23:33:00,73.8,72.0,29.86,SSE,158,11.0,14.0,94,0.00,,---,0.00,VWS V14.01,2013-09-01 03:33:00,
2013-08-31 23:38:00,73.8,72.0,29.86,WNW,294,8.0,14.0,94,0.00,,---,0.00,VWS V14.01,2013-09-01 03:38:00,
2013-08-31 23:43:00,73.8,72.0,29.86,SSW,200,8.0,14.0,94,0.00,,---,0.00,VWS V14.01,2013-09-01 03:43:00,
2013-08-31 23:48:00,73.8,72.3,29.86,ENE,71,7.0,14.0,95,0.00,,---,0.00,VWS V14.01,2013-09-01 03:48:00,
2013-08-31 23:53:00,73.7,72.2,29.86,SSW,208,5.0,14.0,95,0.00,,---,0.00,VWS V14.01,2013-09-01 03:53:00,
2013-08-31 23:58:00,73.7,72.2,29.85,SE,125,9.0,14.0,95,0.00,,---,0.00,VWS V14.01,2013-09-01 03:58:00,